createdAt,value
2018-02-20T00:00:02.889Z,5.8
2018-02-20T00:01:02.854Z,5.8
2018-02-20T00:02:02.567Z,5.8
2018-02-20T00:03:02.519Z,5.9
2018-02-20T00:04:02.280Z,5.8
2018-02-20T00:05:02.314Z,5.8
2018-02-20T00:06:02.552Z,5.8
2018-02-20T00:07:02.411Z,5.8
2018-02-20T00:08:02.309Z,5.8
2018-02-20T00:09:02.398Z,5.8
2018-02-20T00:10:02.373Z,5.8
2018-02-20T00:11:02.109Z,5.8
2018-02-20T00:12:02.430Z,5.9
2018-02-20T00:13:01.571Z,5.8
2018-02-20T00:14:01.632Z,5.9
2018-02-20T00:15:01.472Z,5.9
2018-02-20T00:16:01.833Z,5.8
2018-02-20T00:17:01.653Z,5.9
2018-02-20T00:18:01.593Z,5.9
2018-02-20T00:19:01.400Z,5.9
2018-02-20T00:20:01.220Z,5.9
2018-02-20T00:21:01.163Z,5.9
2018-02-20T00:22:01.348Z,5.9
2018-02-20T00:23:01.064Z,5.9
2018-02-20T00:24:01.017Z,5.9
2018-02-20T00:25:01.137Z,5.9
2018-02-20T00:26:00.866Z,5.9
2018-02-20T00:27:00.954Z,5.9
2018-02-20T00:28:00.528Z,5.9
2018-02-20T00:29:00.616Z,5.9
2018-02-20T00:30:00.661Z,5.9
2018-02-20T00:31:00.554Z,5.9
2018-02-20T00:32:00.635Z,5.9
2018-02-20T00:33:00.459Z,5.9
2018-02-20T00:34:00.382Z,5.9
2018-02-20T00:35:00.439Z,5.9
2018-02-20T00:36:00.261Z,5.9
2018-02-20T00:37:00.275Z,5.9
2018-02-20T00:38:00.300Z,5.9
2018-02-20T00:38:59.843Z,5.9
2018-02-20T00:39:59.865Z,5.9
2018-02-20T00:41:00.114Z,5.9
2018-02-20T00:42:00.091Z,5.9
2018-02-20T00:42:59.793Z,5.9
2018-02-20T00:43:59.968Z,5.9
2018-02-20T00:44:59.941Z,5.9
2018-02-20T00:45:59.824Z,5.9
2018-02-20T00:46:59.428Z,5.9
2018-02-20T00:48:00.311Z,5.9
2018-02-20T00:48:59.452Z,5.9
2018-02-20T00:49:59.188Z,5.9
2018-02-20T00:50:59.009Z,5.9
2018-02-20T00:51:59.427Z,5.9
2018-02-20T00:52:59.205Z,5.9
2018-02-20T00:53:59.149Z,5.9
2018-02-20T00:54:59.018Z,5.9
2018-02-20T00:55:58.759Z,5.9
2018-02-20T00:56:58.897Z,5.9
2018-02-20T00:57:58.944Z,5.9
2018-02-20T00:58:58.685Z,5.9
2018-02-20T00:59:58.583Z,5.8
2018-02-20T01:00:58.349Z,5.8
2018-02-20T01:01:58.267Z,5.8
2018-02-20T01:02:58.247Z,5.8
2018-02-20T01:03:58.458Z,5.8
2018-02-20T01:04:58.429Z,5.9
2018-02-20T01:05:58.268Z,5.9
2018-02-20T01:06:58.714Z,5.9
2018-02-20T01:07:59.027Z,5.8
2018-02-20T01:08:57.857Z,5.9
2018-02-20T01:09:58.120Z,5.9
2018-02-20T01:10:57.954Z,5.9
2018-02-20T01:11:57.651Z,5.9
2018-02-20T01:12:57.617Z,5.9
2018-02-20T01:13:57.341Z,5.9
2018-02-20T01:14:57.364Z,5.9
2018-02-20T01:15:57.676Z,5.9
2018-02-20T01:16:57.362Z,5.9
2018-02-20T01:17:57.893Z,5.9
2018-02-20T01:18:57.593Z,5.9
2018-02-20T01:19:57.465Z,5.9
2018-02-20T01:20:57.248Z,5.9
2018-02-20T01:21:56.787Z,5.9
2018-02-20T01:22:57.114Z,5.9
2018-02-20T01:23:56.959Z,5.9
2018-02-20T01:24:57.495Z,5.9
2018-02-20T01:25:57.080Z,5.9
2018-02-20T01:26:57.257Z,5.9
2018-02-20T01:27:56.528Z,5.9
2018-02-20T01:28:56.519Z,5.9
2018-02-20T01:29:56.232Z,5.9
2018-02-20T01:30:56.631Z,5.9
2018-02-20T01:31:56.403Z,5.9
2018-02-20T01:32:56.150Z,5.9
2018-02-20T01:33:56.171Z,5.9
2018-02-20T01:34:55.924Z,6
2018-02-20T01:35:56.242Z,6
2018-02-20T01:36:55.835Z,6
2018-02-20T01:37:56.086Z,6
2018-02-20T01:38:56.042Z,6
2018-02-20T01:39:55.613Z,6
2018-02-20T01:40:55.658Z,6
2018-02-20T01:41:55.651Z,6
2018-02-20T01:42:55.658Z,6
2018-02-20T01:43:55.600Z,6
2018-02-20T01:44:56.179Z,6
2018-02-20T01:45:55.222Z,6
2018-02-20T01:46:55.154Z,6
2018-02-20T01:47:55.906Z,6
2018-02-20T01:48:55.042Z,6
2018-02-20T01:49:55.055Z,6
2018-02-20T01:50:55.026Z,6.1
2018-02-20T01:51:55.188Z,6
2018-02-20T01:52:54.963Z,6.1
2018-02-20T01:53:54.585Z,6.1
2018-02-20T01:54:54.718Z,6
2018-02-20T01:55:55.507Z,6.1
2018-02-20T01:56:54.553Z,6
2018-02-20T01:57:54.636Z,6
2018-02-20T01:58:54.343Z,6
2018-02-20T01:59:54.510Z,6
2018-02-20T02:00:54.484Z,6
2018-02-20T02:01:54.618Z,6
2018-02-20T02:02:54.045Z,6
2018-02-20T02:03:54.146Z,6
2018-02-20T02:04:54.188Z,6.1
2018-02-20T02:05:53.991Z,6
2018-02-20T02:06:54.156Z,6
2018-02-20T02:07:54.098Z,6
2018-02-20T02:08:54.513Z,6
2018-02-20T02:09:53.832Z,6
2018-02-20T02:10:53.702Z,6
2018-02-20T02:11:53.560Z,6
2018-02-20T02:12:53.429Z,6
2018-02-20T02:13:53.746Z,6
2018-02-20T02:14:53.506Z,6
2018-02-20T02:15:53.843Z,6
2018-02-20T02:16:53.205Z,5.9
2018-02-20T02:17:53.695Z,5.9
2018-02-20T02:18:53.135Z,5.9
2018-02-20T02:19:52.893Z,5.9
2018-02-20T02:20:53.375Z,5.9
2018-02-20T02:21:52.852Z,5.9
2018-02-20T02:22:52.989Z,5.9
2018-02-20T02:23:52.931Z,5.8
2018-02-20T02:24:52.686Z,5.9
2018-02-20T02:25:52.468Z,5.8
2018-02-20T02:26:52.661Z,5.8
2018-02-20T02:27:52.748Z,5.8
2018-02-20T02:28:52.373Z,5.8
2018-02-20T02:29:52.403Z,5.8
2018-02-20T02:30:52.352Z,5.8
2018-02-20T02:31:52.699Z,5.8
2018-02-20T02:32:51.967Z,5.8
2018-02-20T02:33:52.312Z,5.8
2018-02-20T02:34:52.229Z,5.8
2018-02-20T02:35:51.983Z,5.8
2018-02-20T02:36:51.794Z,5.8
2018-02-20T02:37:51.589Z,5.8
2018-02-20T02:38:51.878Z,5.8
2018-02-20T02:39:52.269Z,5.8
2018-02-20T02:40:51.851Z,5.8
2018-02-20T02:41:51.746Z,5.7
2018-02-20T02:42:51.629Z,5.8
2018-02-20T02:43:51.244Z,5.7
2018-02-20T02:44:51.400Z,5.8
2018-02-20T02:45:51.560Z,5.8
2018-02-20T02:46:51.458Z,5.8
2018-02-20T02:47:51.326Z,5.8
2018-02-20T02:48:50.884Z,5.8
2018-02-20T02:49:51.217Z,5.8
2018-02-20T02:50:50.742Z,5.8
2018-02-20T02:51:51.182Z,5.8
2018-02-20T02:52:50.958Z,5.8
2018-02-20T02:53:51.197Z,5.8
2018-02-20T02:54:50.701Z,5.8
2018-02-20T02:55:50.935Z,5.8
2018-02-20T02:56:50.613Z,5.8
2018-02-20T02:57:50.355Z,5.8
2018-02-20T02:58:50.403Z,5.8
2018-02-20T02:59:50.640Z,5.8
2018-02-20T03:00:50.620Z,5.8
2018-02-20T03:01:50.486Z,5.8
2018-02-20T03:02:50.031Z,5.8
2018-02-20T03:03:49.833Z,5.8
2018-02-20T03:04:49.997Z,5.8
2018-02-20T03:05:50.245Z,5.8
2018-02-20T03:06:49.838Z,5.8
2018-02-20T03:07:50.190Z,5.8
2018-02-20T03:08:49.820Z,5.8
2018-02-20T03:09:49.431Z,5.8
2018-02-20T03:10:49.784Z,5.8
2018-02-20T03:11:49.268Z,5.8
2018-02-20T03:12:49.149Z,5.8
2018-02-20T03:13:49.422Z,5.8
2018-02-20T03:14:49.619Z,5.8
2018-02-20T03:15:49.584Z,5.8
2018-02-20T03:16:48.987Z,5.9
2018-02-20T03:17:48.978Z,5.9
2018-02-20T03:18:49.459Z,5.8
2018-02-20T03:19:48.950Z,5.8
2018-02-20T03:20:48.798Z,5.8
2018-02-20T03:21:48.594Z,5.8
2018-02-20T03:22:48.446Z,5.8
2018-02-20T03:23:48.697Z,5.8
2018-02-20T03:24:48.612Z,5.8
2018-02-20T03:25:48.832Z,5.8
2018-02-20T03:26:48.837Z,5.8
2018-02-20T03:27:48.208Z,5.8
2018-02-20T03:28:48.804Z,5.8
2018-02-20T03:29:48.504Z,5.8
2018-02-20T03:30:47.980Z,5.8
2018-02-20T03:31:48.122Z,5.8
2018-02-20T03:32:48.111Z,5.8
2018-02-20T03:33:47.729Z,5.8
2018-02-20T03:34:48.030Z,5.8
2018-02-20T03:35:47.749Z,5.8
2018-02-20T03:36:48.082Z,5.8
2018-02-20T03:37:47.694Z,5.8
2018-02-20T03:38:47.437Z,5.7
2018-02-20T03:39:47.484Z,5.7
2018-02-20T03:40:47.506Z,5.7
2018-02-20T03:41:47.386Z,5.7
2018-02-20T03:42:47.740Z,5.7
2018-02-20T03:43:47.471Z,5.7
2018-02-20T03:44:47.122Z,5.7
2018-02-20T03:45:47.248Z,5.7
2018-02-20T03:46:47.343Z,5.7
2018-02-20T03:47:47.096Z,5.7
2018-02-20T03:48:46.762Z,5.7
2018-02-20T03:49:47.000Z,5.6
2018-02-20T03:50:47.417Z,5.6
2018-02-20T03:51:46.738Z,5.6
2018-02-20T03:52:46.667Z,5.6
2018-02-20T03:53:47.213Z,5.6
2018-02-20T03:54:46.326Z,5.6
2018-02-20T03:55:46.486Z,5.6
2018-02-20T03:56:46.583Z,5.6
2018-02-20T03:57:46.433Z,5.6
2018-02-20T03:58:46.029Z,5.6
2018-02-20T03:59:46.320Z,5.6
2018-02-20T04:00:46.351Z,5.6
2018-02-20T04:01:46.161Z,5.6
2018-02-20T04:02:45.889Z,5.6
2018-02-20T04:03:45.949Z,5.6
2018-02-20T04:04:45.831Z,5.6
2018-02-20T04:05:46.029Z,5.6
2018-02-20T04:06:46.503Z,5.6
2018-02-20T04:07:46.000Z,5.6
2018-02-20T04:08:45.427Z,5.6
2018-02-20T04:09:45.572Z,5.6
2018-02-20T04:10:45.420Z,5.6
2018-02-20T04:11:45.438Z,5.6
2018-02-20T04:12:46.027Z,5.6
2018-02-20T04:13:45.167Z,5.6
2018-02-20T04:14:45.020Z,5.6
2018-02-20T04:15:45.509Z,5.6
2018-02-20T04:16:45.340Z,5.6
2018-02-20T04:17:44.962Z,5.6
2018-02-20T04:18:45.014Z,5.6
2018-02-20T04:19:44.588Z,5.6
2018-02-20T04:20:44.861Z,5.6
2018-02-20T04:21:44.429Z,5.6
2018-02-20T04:22:44.566Z,5.6
2018-02-20T04:23:44.566Z,5.6
2018-02-20T04:24:44.361Z,5.6
2018-02-20T04:25:44.183Z,5.6
2018-02-20T04:26:44.246Z,5.6
2018-02-20T04:27:43.971Z,5.6
2018-02-20T04:28:44.263Z,5.6
2018-02-20T04:29:44.024Z,5.6
2018-02-20T04:30:43.947Z,5.6
2018-02-20T04:31:43.889Z,5.6
2018-02-20T04:32:44.102Z,5.6
2018-02-20T04:33:43.754Z,5.6
2018-02-20T04:34:43.780Z,5.6
2018-02-20T04:35:43.471Z,5.6
2018-02-20T04:36:43.718Z,5.6
2018-02-20T04:37:43.714Z,5.3
2018-02-20T04:38:43.524Z,4.2
2018-02-20T04:39:44.047Z,3.7
2018-02-20T04:40:43.355Z,3.3
2018-02-20T04:41:43.435Z,3.2
2018-02-20T04:42:43.336Z,3
2018-02-20T04:43:43.328Z,2.9
2018-02-20T04:44:43.695Z,2.7
2018-02-20T04:45:42.976Z,2.7
2018-02-20T04:46:43.303Z,2.6
2018-02-20T04:47:43.023Z,2.5
2018-02-20T04:48:42.815Z,2.4
2018-02-20T04:49:42.747Z,2.4
2018-02-20T04:50:43.154Z,2.4
2018-02-20T04:51:42.893Z,2.4
2018-02-20T04:52:42.436Z,2.4
2018-02-20T04:53:42.272Z,2.3
2018-02-20T04:54:42.655Z,2.3
2018-02-20T04:55:42.116Z,2.3
2018-02-20T04:56:42.173Z,2.3
2018-02-20T04:57:42.154Z,2.3
2018-02-20T04:58:42.140Z,2.3
2018-02-20T04:59:42.088Z,2.3
2018-02-20T05:00:42.096Z,2.3
2018-02-20T05:01:42.271Z,2.3
2018-02-20T05:02:41.954Z,2.2
2018-02-20T05:03:42.603Z,2.3
2018-02-20T05:04:41.794Z,2.2
2018-02-20T05:05:41.716Z,2.1
2018-02-20T05:06:41.358Z,2.1
2018-02-20T05:07:41.396Z,2.2
2018-02-20T05:08:41.457Z,2.2
2018-02-20T05:09:41.426Z,2.1
2018-02-20T05:10:41.046Z,2.2
2018-02-20T05:11:41.405Z,2.2
2018-02-20T05:12:41.064Z,2.1
2018-02-20T05:13:41.105Z,2.1
2018-02-20T05:14:41.043Z,2.2
2018-02-20T05:15:40.917Z,2.3
2018-02-20T05:16:40.621Z,2.2
2018-02-20T05:17:40.837Z,2.2
2018-02-20T05:18:40.860Z,2.2
2018-02-20T05:19:40.566Z,2.1
2018-02-20T05:20:40.782Z,2.1
2018-02-20T05:21:40.512Z,2.1
2018-02-20T05:22:40.891Z,2.1
2018-02-20T05:23:40.367Z,2.1
2018-02-20T05:24:40.196Z,2.1
2018-02-20T05:25:40.205Z,2.1
2018-02-20T05:26:40.131Z,2.1
2018-02-20T05:27:40.207Z,2.1
2018-02-20T05:28:40.181Z,2.1
2018-02-20T05:29:39.984Z,2.1
2018-02-20T05:30:39.942Z,2.1
2018-02-20T05:31:40.015Z,2.1
2018-02-20T05:32:39.862Z,2.1
2018-02-20T05:33:39.898Z,2.1
2018-02-20T05:34:39.692Z,2.1
2018-02-20T05:35:39.646Z,2.1
2018-02-20T05:36:39.885Z,2.1
2018-02-20T05:37:39.752Z,2.1
2018-02-20T05:38:39.278Z,2.1
2018-02-20T05:39:39.495Z,2
2018-02-20T05:40:39.388Z,2
2018-02-20T05:41:38.920Z,2
2018-02-20T05:42:39.037Z,2.1
2018-02-20T05:43:38.925Z,2.1
2018-02-20T05:44:39.023Z,2.1
2018-02-20T05:45:38.769Z,2.1
2018-02-20T05:46:38.841Z,2.1
2018-02-20T05:47:38.537Z,2.1
2018-02-20T05:48:38.407Z,2.1
2018-02-20T05:49:38.418Z,2.1
2018-02-20T05:50:38.995Z,2.2
2018-02-20T05:51:38.295Z,2.2
2018-02-20T05:52:38.529Z,2.1
2018-02-20T05:53:38.644Z,2.1
2018-02-20T05:54:38.257Z,2.2
2018-02-20T05:55:38.157Z,2.2
2018-02-20T05:56:38.227Z,2.2
2018-02-20T05:57:38.096Z,2.3
2018-02-20T05:58:37.820Z,2.2
2018-02-20T05:59:38.072Z,2.3
2018-02-20T06:00:37.922Z,2.1
2018-02-20T06:01:37.954Z,2.1
2018-02-20T06:02:37.714Z,2.1
2018-02-20T06:03:38.091Z,2.1
2018-02-20T06:04:37.490Z,2.1
2018-02-20T06:05:37.468Z,2.1
2018-02-20T06:06:37.744Z,2.2
2018-02-20T06:07:37.232Z,2.2
2018-02-20T06:08:38.067Z,2.2
2018-02-20T06:09:37.928Z,2.2
2018-02-20T06:10:37.237Z,2.1
2018-02-20T06:11:36.877Z,2.2
2018-02-20T06:12:37.135Z,2.2
2018-02-20T06:13:36.858Z,2.3
2018-02-20T06:14:36.787Z,2.2
2018-02-20T06:15:36.847Z,2.3
2018-02-20T06:16:36.641Z,2.3
2018-02-20T06:17:36.467Z,2.2
2018-02-20T06:18:36.718Z,2.2
2018-02-20T06:19:36.345Z,2.3
2018-02-20T06:20:36.368Z,2.3
2018-02-20T06:21:36.341Z,2.3
2018-02-20T06:22:36.821Z,2.3
2018-02-20T06:23:36.447Z,2.3
2018-02-20T06:24:36.087Z,2.3
2018-02-20T06:25:36.046Z,2.3
2018-02-20T06:26:36.181Z,2.3
2018-02-20T06:27:36.188Z,2.3
2018-02-20T06:28:36.226Z,2.4
2018-02-20T06:29:35.817Z,2.4
2018-02-20T06:30:35.690Z,2.4
2018-02-20T06:31:35.882Z,2.4
2018-02-20T06:32:35.908Z,2.4
2018-02-20T06:33:35.484Z,2.4
2018-02-20T06:34:35.319Z,2.4
2018-02-20T06:35:35.532Z,2.4
2018-02-20T06:36:35.699Z,2.4
2018-02-20T06:37:35.414Z,2.4
2018-02-20T06:38:35.312Z,2.4
2018-02-20T06:39:35.475Z,2.4
2018-02-20T06:40:34.916Z,2.4
2018-02-20T06:41:35.151Z,2.4
2018-02-20T06:42:35.084Z,2.4
2018-02-20T06:43:34.981Z,2.4
2018-02-20T06:44:34.741Z,2.4
2018-02-20T06:45:34.823Z,2.4
2018-02-20T06:46:34.695Z,2.5
2018-02-20T06:47:34.480Z,2.5
2018-02-20T06:48:34.326Z,2.6
2018-02-20T06:49:34.843Z,2.5
2018-02-20T06:50:34.201Z,2.5
2018-02-20T06:51:34.274Z,2.5
2018-02-20T06:52:34.081Z,2.5
2018-02-20T06:53:33.984Z,2.5
2018-02-20T06:54:34.013Z,2.6
2018-02-20T06:55:34.676Z,2.5
2018-02-20T06:56:33.875Z,2.5
2018-02-20T06:57:33.983Z,2.6
2018-02-20T06:58:34.355Z,2.6
2018-02-20T06:59:33.883Z,2.6
2018-02-20T07:00:33.838Z,2.6
2018-02-20T07:01:33.830Z,2.6
2018-02-20T07:02:33.505Z,2.6
2018-02-20T07:03:33.679Z,2.6
2018-02-20T07:04:33.217Z,2.6
2018-02-20T07:05:33.246Z,2.6
2018-02-20T07:06:33.306Z,2.7
2018-02-20T07:07:33.355Z,2.7
2018-02-20T07:08:33.605Z,2.8
2018-02-20T07:09:33.605Z,2.8
2018-02-20T07:10:33.228Z,2.8
2018-02-20T07:11:33.095Z,2.7
2018-02-20T07:12:32.822Z,2.8
2018-02-20T07:13:33.297Z,2.9
2018-02-20T07:14:32.756Z,2.8
2018-02-20T07:15:32.985Z,2.8
2018-02-20T07:16:32.425Z,2.9
2018-02-20T07:17:32.639Z,2.9
2018-02-20T07:18:32.529Z,2.9
2018-02-20T07:19:32.125Z,2.9
2018-02-20T07:20:32.399Z,2.9
2018-02-20T07:21:32.335Z,3
2018-02-20T07:22:32.364Z,3
2018-02-20T07:23:32.155Z,3.1
2018-02-20T07:24:31.829Z,3.1
2018-02-20T07:25:32.172Z,3.1
2018-02-20T07:26:31.923Z,3.2
2018-02-20T07:27:31.920Z,3.2
2018-02-20T07:28:31.730Z,3.1
2018-02-20T07:29:31.685Z,3.2
2018-02-20T07:30:31.777Z,3.2
2018-02-20T07:31:31.797Z,3.2
2018-02-20T07:32:31.959Z,3.2
2018-02-20T07:33:31.547Z,3.2
2018-02-20T07:34:31.197Z,3.4
2018-02-20T07:35:31.223Z,3.3
2018-02-20T07:36:31.131Z,3.3
2018-02-20T07:37:30.929Z,3.2
2018-02-20T07:38:31.231Z,3.3
2018-02-20T07:39:30.930Z,3.3
2018-02-20T07:40:30.823Z,3.4
2018-02-20T07:41:31.183Z,3.3
2018-02-20T07:42:30.558Z,3.2
2018-02-20T07:43:30.541Z,3.2
2018-02-20T07:44:31.055Z,3.3
2018-02-20T07:45:30.750Z,3.4
2018-02-20T07:46:30.544Z,3.4
2018-02-20T07:47:30.573Z,3.4
2018-02-20T07:48:30.454Z,3.4
2018-02-20T07:49:30.512Z,3.3
2018-02-20T07:50:30.061Z,3.4
2018-02-20T07:51:30.044Z,3.3
2018-02-20T07:52:30.247Z,3.4
2018-02-20T07:53:30.553Z,3.4
2018-02-20T07:54:30.153Z,3.3
2018-02-20T07:55:30.685Z,3.3
2018-02-20T07:56:29.737Z,3.4
2018-02-20T07:57:29.900Z,3.3
2018-02-20T07:58:29.888Z,3.3
2018-02-20T07:59:29.878Z,3.3
2018-02-20T08:00:29.589Z,3.5
2018-02-20T08:01:29.408Z,3.6
2018-02-20T08:02:29.746Z,3.4
2018-02-20T08:03:29.311Z,3.4
2018-02-20T08:04:29.483Z,3.3
2018-02-20T08:05:29.622Z,3.4
2018-02-20T08:06:29.154Z,3.5
2018-02-20T08:07:29.664Z,3.6
2018-02-20T08:08:29.041Z,3.7
2018-02-20T08:09:29.535Z,3.8
2018-02-20T08:10:28.955Z,3.8
2018-02-20T08:11:28.926Z,3.8
2018-02-20T08:12:28.522Z,3.8
2018-02-20T08:13:28.793Z,3.6
2018-02-20T08:14:28.643Z,3.7
2018-02-20T08:15:29.214Z,3.8
2018-02-20T08:16:28.562Z,3.9
2018-02-20T08:17:28.693Z,3.7
2018-02-20T08:18:28.259Z,3.6
2018-02-20T08:19:28.344Z,3.6
2018-02-20T08:20:28.194Z,3.6
2018-02-20T08:21:27.999Z,3.8
2018-02-20T08:22:28.447Z,3.8
2018-02-20T08:23:28.036Z,3.9
2018-02-20T08:24:28.000Z,4.1
2018-02-20T08:25:27.710Z,4
2018-02-20T08:26:28.051Z,4.1
2018-02-20T08:27:27.714Z,4
2018-02-20T08:28:27.593Z,4.1
2018-02-20T08:29:27.542Z,4.1
2018-02-20T08:30:27.573Z,3.9
2018-02-20T08:31:27.219Z,3.9
2018-02-20T08:32:27.137Z,4.1
2018-02-20T08:33:27.498Z,4.1
2018-02-20T08:34:26.997Z,4.1
2018-02-20T08:35:27.290Z,4.2
2018-02-20T08:36:26.984Z,4.1
2018-02-20T08:37:27.210Z,4.3
2018-02-20T08:38:26.827Z,4.3
2018-02-20T08:39:27.041Z,4
2018-02-20T08:40:26.602Z,3.9
2018-02-20T08:41:26.538Z,4
2018-02-20T08:42:26.607Z,4
2018-02-20T08:43:26.664Z,3.9
2018-02-20T08:44:26.458Z,3.9
2018-02-20T08:45:26.519Z,3.9
2018-02-20T08:46:26.228Z,3.8
2018-02-20T08:47:26.844Z,3.9
2018-02-20T08:48:26.137Z,3.8
2018-02-20T08:49:26.818Z,3.8
2018-02-20T08:50:26.007Z,3.8
2018-02-20T08:51:25.801Z,3.9
2018-02-20T08:52:25.742Z,4
2018-02-20T08:53:25.821Z,4.1
2018-02-20T08:54:26.081Z,4.1
2018-02-20T08:55:25.845Z,4.1
2018-02-20T08:56:25.833Z,3.9
2018-02-20T08:57:25.886Z,4.1
2018-02-20T08:58:25.559Z,4.1
2018-02-20T08:59:25.382Z,3.8
2018-02-20T09:00:25.673Z,3.9
2018-02-20T09:01:25.536Z,3.9
2018-02-20T09:02:25.420Z,3.9
2018-02-20T09:03:25.231Z,3.9
2018-02-20T09:04:25.317Z,3.9
2018-02-20T09:05:24.894Z,3.9
2018-02-20T09:06:24.911Z,4.1
2018-02-20T09:07:24.828Z,3.9
2018-02-20T09:08:24.769Z,3.9
2018-02-20T09:09:24.751Z,4
2018-02-20T09:10:25.058Z,3.9
2018-02-20T09:11:24.818Z,3.9
2018-02-20T09:12:24.496Z,4
2018-02-20T09:13:24.780Z,4
2018-02-20T09:14:25.151Z,4
2018-02-20T09:15:24.182Z,3.9
2018-02-20T09:16:24.203Z,3.9
2018-02-20T09:17:24.142Z,4
2018-02-20T09:18:24.050Z,3.9
2018-02-20T09:19:24.577Z,4
2018-02-20T09:20:23.920Z,3.9
2018-02-20T09:21:24.134Z,3.9
2018-02-20T09:22:23.842Z,3.9
2018-02-20T09:23:23.627Z,4.1
2018-02-20T09:24:23.679Z,4.1
2018-02-20T09:25:23.683Z,4.2
2018-02-20T09:26:24.146Z,4.2
2018-02-20T09:27:23.330Z,4.1
2018-02-20T09:28:23.188Z,4.1
2018-02-20T09:29:23.431Z,4
2018-02-20T09:30:23.238Z,4
2018-02-20T09:31:23.544Z,4.3
2018-02-20T09:32:23.099Z,4.1
2018-02-20T09:33:23.156Z,4.2
2018-02-20T09:34:23.234Z,4.1
2018-02-20T09:35:22.769Z,4.3
2018-02-20T09:36:22.978Z,4.3
2018-02-20T09:37:23.327Z,4.3
2018-02-20T09:38:22.577Z,4.3
2018-02-20T09:39:22.501Z,4.3
2018-02-20T09:40:23.287Z,4.3
2018-02-20T09:41:22.581Z,4.3
2018-02-20T09:42:22.763Z,4.4
2018-02-20T09:43:22.748Z,4.4
2018-02-20T09:44:22.476Z,4.6
2018-02-20T09:45:22.143Z,4.5
2018-02-20T09:46:22.155Z,4.6
2018-02-20T09:47:22.123Z,4.6
2018-02-20T09:48:22.200Z,4.7
2018-02-20T09:49:21.820Z,4.5
2018-02-20T09:50:22.264Z,4.3
2018-02-20T09:51:22.144Z,4.3
2018-02-20T09:52:22.325Z,4.5
2018-02-20T09:53:21.529Z,4.5
2018-02-20T09:54:21.628Z,4.7
2018-02-20T09:55:21.896Z,4.7
2018-02-20T09:56:21.318Z,4.7
2018-02-20T09:57:21.986Z,4.7
2018-02-20T09:58:21.350Z,4.7
2018-02-20T09:59:21.574Z,4.7
2018-02-20T10:00:21.452Z,4.6
2018-02-20T10:01:21.296Z,4.8
2018-02-20T10:02:21.109Z,4.7
2018-02-20T10:03:20.948Z,4.8
2018-02-20T10:04:21.199Z,4.9
2018-02-20T10:05:20.870Z,4.9
2018-02-20T10:06:21.031Z,4.8
2018-02-20T10:07:20.983Z,4.8
2018-02-20T10:08:20.716Z,4.9
2018-02-20T10:09:20.840Z,4.8
2018-02-20T10:10:20.460Z,4.8
2018-02-20T10:11:20.291Z,4.8
2018-02-20T10:12:20.188Z,4.7
2018-02-20T10:13:20.508Z,4.7
2018-02-20T10:14:20.121Z,4.7
2018-02-20T10:15:20.303Z,4.8
2018-02-20T10:16:20.414Z,4.8
2018-02-20T10:17:20.078Z,4.8
2018-02-20T10:18:19.929Z,4.9
2018-02-20T10:19:19.930Z,5
2018-02-20T10:20:19.904Z,4.9
2018-02-20T10:21:20.028Z,4.8
2018-02-20T10:22:19.653Z,4.9
2018-02-20T10:23:19.734Z,4.8
2018-02-20T10:24:19.603Z,4.8
2018-02-20T10:25:19.375Z,4.8
2018-02-20T10:26:19.684Z,4.9
2018-02-20T10:27:19.302Z,4.9
2018-02-20T10:28:19.343Z,4.9
2018-02-20T10:29:19.155Z,4.9
2018-02-20T10:30:19.213Z,5.1
2018-02-20T10:31:19.223Z,4.9
2018-02-20T10:32:19.152Z,5.1
2018-02-20T10:33:19.003Z,5.1
2018-02-20T10:34:18.984Z,5
2018-02-20T10:35:18.745Z,4.9
2018-02-20T10:36:19.278Z,4.9
2018-02-20T10:37:18.813Z,4.9
2018-02-20T10:38:18.870Z,4.8
2018-02-20T10:39:18.367Z,4.9
2018-02-20T10:40:18.509Z,5
2018-02-20T10:41:18.833Z,5
2018-02-20T10:42:18.160Z,5
2018-02-20T10:43:18.304Z,5.2
2018-02-20T10:44:18.056Z,5.3
2018-02-20T10:45:18.157Z,5.1
2018-02-20T10:46:18.203Z,5.1
2018-02-20T10:47:18.217Z,5.3
2018-02-20T10:48:18.596Z,5.3
2018-02-20T10:49:18.043Z,5.3
2018-02-20T10:50:17.701Z,5.4
2018-02-20T10:51:17.859Z,5.4
2018-02-20T10:52:17.427Z,5.4
2018-02-20T10:53:17.809Z,5.4
2018-02-20T10:54:17.781Z,5.5
2018-02-20T10:55:17.640Z,5.6
2018-02-20T10:56:17.554Z,5.4
2018-02-20T10:57:17.442Z,5.5
2018-02-20T10:58:17.246Z,5.5
2018-02-20T10:59:17.525Z,5.6
2018-02-20T11:00:16.876Z,5.7
2018-02-20T11:01:16.965Z,5.6
2018-02-20T11:02:16.988Z,5.7
2018-02-20T11:03:17.268Z,5.7
2018-02-20T11:04:17.168Z,5.6
2018-02-20T11:05:16.684Z,5.6
2018-02-20T11:06:16.715Z,5.8
2018-02-20T11:07:16.929Z,5.8
2018-02-20T11:08:16.354Z,5.7
2018-02-20T11:09:16.970Z,5.8
2018-02-20T11:10:16.291Z,5.7
2018-02-20T11:11:16.264Z,5.5
2018-02-20T11:12:16.296Z,5.5
2018-02-20T11:13:16.123Z,5.5
2018-02-20T11:14:15.927Z,5.7
2018-02-20T11:15:15.866Z,5.6
2018-02-20T11:16:16.106Z,5.8
2018-02-20T11:17:15.941Z,5.8
2018-02-20T11:18:15.789Z,5.8
2018-02-20T11:19:15.996Z,6
2018-02-20T11:20:15.927Z,5.9
2018-02-20T11:21:15.621Z,5.9
2018-02-20T11:22:15.705Z,5.9
2018-02-20T11:23:15.333Z,5.9
2018-02-20T11:24:15.538Z,5.9
2018-02-20T11:25:15.701Z,6
2018-02-20T11:26:15.162Z,5.9
2018-02-20T11:27:15.422Z,5.9
2018-02-20T11:28:14.969Z,6
2018-02-20T11:29:15.167Z,6.1
2018-02-20T11:30:15.144Z,5.9
2018-02-20T11:31:14.779Z,6
2018-02-20T11:32:14.916Z,6
2018-02-20T11:33:14.786Z,6.1
2018-02-20T11:34:15.025Z,6.1
2018-02-20T11:35:14.960Z,6.1
2018-02-20T11:36:14.425Z,6.1
2018-02-20T11:37:14.363Z,5.9
2018-02-20T11:38:14.511Z,6
2018-02-20T11:39:14.460Z,5.8
2018-02-20T11:40:14.412Z,5.9
2018-02-20T11:41:14.134Z,5.8
2018-02-20T11:42:14.546Z,5.7
2018-02-20T11:43:14.055Z,5.6
2018-02-20T11:44:14.195Z,5.5
2018-02-20T11:45:14.168Z,5.4
2018-02-20T11:46:13.818Z,5.4
2018-02-20T11:47:13.955Z,5.5
2018-02-20T11:48:14.143Z,5.5
2018-02-20T11:49:13.742Z,5.3
2018-02-20T11:50:13.659Z,5.4
2018-02-20T11:51:13.690Z,5.5
2018-02-20T11:52:13.615Z,5.5
2018-02-20T11:53:13.625Z,5.7
2018-02-20T11:54:45.690Z,5.5
2018-02-20T11:55:13.015Z,5.4
2018-02-20T11:56:13.625Z,5.2
2018-02-20T11:57:12.926Z,5.3
2018-02-20T11:58:13.179Z,5.4
2018-02-20T11:59:13.198Z,5.1
2018-02-20T12:00:12.922Z,5.1
2018-02-20T12:01:12.657Z,5.1
2018-02-20T12:02:12.542Z,5.2
2018-02-20T12:03:12.672Z,5.3
2018-02-20T12:04:12.329Z,5.2
2018-02-20T12:05:12.655Z,5.2
2018-02-20T12:06:12.512Z,5.3
2018-02-20T12:07:12.451Z,5.3
2018-02-20T12:08:12.368Z,5.2
2018-02-20T12:09:12.103Z,5.1
2018-02-20T12:10:12.030Z,5.1
2018-02-20T12:11:12.244Z,5.2
2018-02-20T12:12:11.977Z,5.3
2018-02-20T12:13:11.634Z,5.4
2018-02-20T12:14:12.227Z,5.1
2018-02-20T12:15:12.516Z,5.1
2018-02-20T12:16:11.537Z,5.1
2018-02-20T12:17:11.455Z,5.3
2018-02-20T12:18:11.414Z,5.2
2018-02-20T12:19:11.513Z,5.3
2018-02-20T12:20:11.537Z,5.4
2018-02-20T12:21:11.041Z,5.3
2018-02-20T12:22:11.397Z,5.4
2018-02-20T12:23:11.551Z,5.3
2018-02-20T12:24:10.936Z,5.4
2018-02-20T12:25:11.007Z,5.3
2018-02-20T12:26:10.782Z,5.2
2018-02-20T12:27:11.165Z,5.3
2018-02-20T12:28:10.705Z,5.3
2018-02-20T12:29:10.589Z,5.2
2018-02-20T12:30:10.378Z,5.1
2018-02-20T12:31:10.426Z,5.3
2018-02-20T12:32:11.030Z,5.4
2018-02-20T12:33:10.208Z,5.4
2018-02-20T12:34:10.156Z,5.4
2018-02-20T12:35:10.279Z,5.4
2018-02-20T12:36:10.198Z,5.4
2018-02-20T12:37:09.754Z,5.3
2018-02-20T12:38:09.814Z,5.1
2018-02-20T12:39:09.739Z,5.3
2018-02-20T12:40:10.456Z,5.4
2018-02-20T12:41:09.707Z,5.3
2018-02-20T12:42:09.420Z,5.3
2018-02-20T12:43:10.235Z,5.3
2018-02-20T12:44:09.577Z,5.3
2018-02-20T12:45:09.397Z,5.1
2018-02-20T12:46:09.142Z,5.1
2018-02-20T12:47:09.107Z,5.1
2018-02-20T12:48:08.858Z,5.3
2018-02-20T12:49:09.049Z,5.1
2018-02-20T12:50:09.391Z,5.1
2018-02-20T12:51:08.869Z,5.1
2018-02-20T12:52:08.571Z,5.1
2018-02-20T12:53:08.708Z,5
2018-02-20T12:54:08.715Z,4.9
2018-02-20T12:55:08.759Z,4.9
2018-02-20T12:56:08.404Z,4.9
2018-02-20T12:57:08.931Z,4.9
2018-02-20T12:58:08.135Z,5
2018-02-20T12:59:08.113Z,4.8
2018-02-20T13:00:08.498Z,4.9
2018-02-20T13:01:08.304Z,4.8
2018-02-20T13:02:08.117Z,4.9
2018-02-20T13:03:07.680Z,4.9
2018-02-20T13:04:08.115Z,4.8
2018-02-20T13:05:07.837Z,4.8
2018-02-20T13:06:07.623Z,4.7
2018-02-20T13:07:07.981Z,4.7
2018-02-20T13:08:07.681Z,4.8
2018-02-20T13:09:07.669Z,4.8
2018-02-20T13:10:08.740Z,4.8
2018-02-20T13:11:07.120Z,4.8
2018-02-20T13:12:07.440Z,4.8
2018-02-20T13:13:06.870Z,4.8
2018-02-20T13:14:07.189Z,4.7
2018-02-20T13:15:06.915Z,4.8
2018-02-20T13:16:07.145Z,4.8
2018-02-20T13:17:07.073Z,4.8
2018-02-20T13:18:06.700Z,4.9
2018-02-20T13:19:07.100Z,4.9
2018-02-20T13:20:06.517Z,4.9
2018-02-20T13:21:06.345Z,4.8
2018-02-20T13:22:06.581Z,4.8
2018-02-20T13:23:06.297Z,4.8
2018-02-20T13:24:06.443Z,4.8
2018-02-20T13:25:06.256Z,4.8
2018-02-20T13:26:06.245Z,4.8
2018-02-20T13:27:05.860Z,4.8
2018-02-20T13:28:06.196Z,4.7
2018-02-20T13:29:06.519Z,4.6
2018-02-20T13:30:06.283Z,4.6
2018-02-20T13:31:06.559Z,4.6
2018-02-20T13:32:05.994Z,4.7
2018-02-20T13:33:05.624Z,4.7
2018-02-20T13:34:05.410Z,4.7
2018-02-20T13:35:05.237Z,4.8
2018-02-20T13:36:05.274Z,4.6
2018-02-20T13:37:05.447Z,4.6
2018-02-20T13:38:05.628Z,4.6
2018-02-20T13:39:05.428Z,4.5
2018-02-20T13:40:05.216Z,4.6
2018-02-20T13:41:04.922Z,4.6
2018-02-20T13:42:04.908Z,4.6
2018-02-20T13:43:04.898Z,4.6
2018-02-20T13:44:04.646Z,4.6
2018-02-20T13:45:04.706Z,4.6
2018-02-20T13:46:04.571Z,4.6
2018-02-20T13:47:04.586Z,4.5
2018-02-20T13:48:04.583Z,4.6
2018-02-20T13:49:04.742Z,4.6